createdAt,value
2022-09-13T00:02:47.822Z,22.60
2022-09-13T00:07:58.552Z,22.60
2022-09-13T00:13:09.113Z,22.60
2022-09-13T00:18:19.671Z,22.60
2022-09-13T00:23:30.075Z,22.60
2022-09-13T00:28:40.363Z,22.60
2022-09-13T00:33:50.658Z,22.60
2022-09-13T00:39:01.241Z,22.60
2022-09-13T00:44:12.014Z,22.60
2022-09-13T00:49:22.631Z,22.60
2022-09-13T00:54:33.024Z,22.60
2022-09-13T00:59:43.485Z,22.60
2022-09-13T01:04:54.291Z,22.60
2022-09-13T01:10:11.470Z,22.60
2022-09-13T01:15:28.041Z,22.60
2022-09-13T01:20:45.445Z,22.60
2022-09-13T01:26:02.366Z,22.60
2022-09-13T01:31:19.324Z,22.60
2022-09-13T01:36:36.459Z,22.60
2022-09-13T01:41:53.458Z,22.50
2022-09-13T01:47:10.108Z,22.50
2022-09-13T01:52:27.302Z,22.60
2022-09-13T01:57:37.980Z,22.60
2022-09-13T02:02:48.860Z,22.60
2022-09-13T02:07:59.583Z,22.50
2022-09-13T02:13:10.210Z,22.60
2022-09-13T02:18:20.692Z,22.50
2022-09-13T02:23:31.419Z,22.60
2022-09-13T02:25:57.900Z,22.60
2022-09-13T02:28:24.383Z,22.60
2022-09-13T02:33:35.034Z,22.50
2022-09-13T02:38:45.841Z,22.50
2022-09-13T02:43:56.271Z,22.60
2022-09-13T02:49:06.587Z,22.60
2022-09-13T02:54:17.146Z,22.60
2022-09-13T02:59:27.651Z,22.60
2022-09-13T03:04:38.235Z,22.60
2022-09-13T03:09:48.458Z,22.60
2022-09-13T03:14:58.883Z,22.50
2022-09-13T03:20:16.256Z,22.60
2022-09-13T03:25:33.257Z,22.50
2022-09-13T03:30:50.275Z,22.50
2022-09-13T03:36:06.952Z,22.60
2022-09-13T03:41:24.088Z,22.60
2022-09-13T03:46:41.350Z,22.60
2022-09-13T03:51:58.383Z,22.60
2022-09-13T03:57:15.286Z,22.50
2022-09-13T04:02:32.433Z,22.60
2022-09-13T04:07:42.963Z,22.50
2022-09-13T04:12:53.683Z,22.50
2022-09-13T04:18:04.086Z,22.60
2022-09-13T04:23:16.138Z,22.60
2022-09-13T04:25:42.604Z,22.50
2022-09-13T04:28:09.083Z,22.60
2022-09-13T04:33:19.826Z,22.60
2022-09-13T04:38:30.422Z,22.60
2022-09-13T04:43:40.859Z,22.60
2022-09-13T04:48:51.276Z,22.60
2022-09-13T04:54:01.709Z,22.60
2022-09-13T04:59:12.006Z,22.60
2022-09-13T05:04:22.283Z,22.60
2022-09-13T05:09:32.904Z,22.60
2022-09-13T05:14:43.670Z,22.60
2022-09-13T05:19:54.176Z,22.60
2022-09-13T05:25:10.921Z,22.50
2022-09-13T05:30:28.211Z,22.60
2022-09-13T05:35:45.105Z,22.50
2022-09-13T05:41:02.087Z,22.60
2022-09-13T05:46:18.801Z,22.60
2022-09-13T05:51:35.915Z,22.60
2022-09-13T05:56:53.083Z,22.50
2022-09-13T06:02:09.977Z,22.60
2022-09-13T06:07:26.902Z,22.50
2022-09-13T06:12:44.226Z,22.60
2022-09-13T06:17:54.616Z,22.60
2022-09-13T06:23:05.007Z,22.60
2022-09-13T06:25:31.485Z,22.50
2022-09-13T06:27:57.970Z,22.60
2022-09-13T06:33:08.660Z,22.50
2022-09-13T06:38:19.301Z,22.50
2022-09-13T06:43:29.947Z,22.60
2022-09-13T06:48:40.324Z,22.50
2022-09-13T06:53:50.850Z,22.50
2022-09-13T06:59:01.444Z,22.60
2022-09-13T07:04:11.784Z,22.50
2022-09-13T07:09:22.388Z,22.50
2022-09-13T07:14:32.774Z,22.50
2022-09-13T07:19:43.065Z,22.50
2022-09-13T07:24:53.416Z,22.50
2022-09-13T07:30:03.958Z,22.50
2022-09-13T07:35:14.450Z,22.60
2022-09-13T07:40:24.929Z,22.50
2022-09-13T07:45:35.580Z,22.50
2022-09-13T07:50:45.968Z,22.50
2022-09-13T07:55:56.654Z,22.50
2022-09-13T08:01:07.338Z,22.50
2022-09-13T08:06:18.144Z,22.50
2022-09-13T08:11:28.799Z,22.50
2022-09-13T08:16:39.435Z,22.50
2022-09-13T08:21:50.216Z,22.50
2022-09-13T08:27:07.142Z,22.50
2022-09-13T08:32:23.739Z,22.50
2022-09-13T08:37:40.819Z,22.50
2022-09-13T08:42:58.117Z,22.50
2022-09-13T08:48:15.091Z,22.50
2022-09-13T08:53:31.724Z,22.50
2022-09-13T08:58:49.112Z,22.50
2022-09-13T09:04:06.069Z,22.50
2022-09-13T09:09:23.008Z,22.50
2022-09-13T09:14:40.032Z,22.50
2022-09-13T09:19:56.783Z,22.50
2022-09-13T09:25:07.250Z,22.60
2022-09-13T09:30:17.630Z,22.60
2022-09-13T09:35:28.172Z,22.60
2022-09-13T09:40:38.904Z,22.60
2022-09-13T09:45:49.617Z,22.60
2022-09-13T09:51:00.162Z,22.60
2022-09-13T09:56:10.697Z,22.60
2022-09-13T10:01:21.214Z,22.60
2022-09-13T10:06:31.604Z,22.60
2022-09-13T10:11:41.875Z,22.70
2022-09-13T10:16:52.515Z,22.70
2022-09-13T10:22:02.922Z,22.70
2022-09-13T10:27:27.579Z,22.70
2022-09-13T10:33:02.558Z,22.70
2022-09-13T10:38:20.120Z,22.70
2022-09-13T10:43:36.722Z,22.80
2022-09-13T10:48:53.522Z,22.80
2022-09-13T10:59:51.499Z,22.80
2022-09-13T11:05:08.947Z,22.80
2022-09-13T11:10:19.724Z,22.90
2022-09-13T11:15:30.457Z,22.80
2022-09-13T11:20:40.975Z,22.90
2022-09-13T11:25:51.346Z,22.90
2022-09-13T11:31:02.108Z,22.90
2022-09-13T11:36:12.713Z,22.90
2022-09-13T11:41:23.278Z,23.00
2022-09-13T11:46:33.728Z,22.90
2022-09-13T11:51:44.480Z,22.90
2022-09-13T11:56:55.180Z,23.00
2022-09-13T12:02:05.889Z,23.00
2022-09-13T12:12:56.776Z,23.00
2022-09-13T12:18:13.680Z,23.00
2022-09-13T12:23:31.144Z,23.00
2022-09-13T12:28:47.613Z,23.00
2022-09-13T12:34:04.537Z,23.00
2022-09-13T12:39:21.884Z,23.10
2022-09-13T12:44:38.636Z,23.10
2022-09-13T12:49:58.789Z,23.10
2022-09-13T12:55:42.857Z,23.10
2022-09-13T13:00:55.952Z,23.10
2022-09-13T13:06:06.372Z,23.10
2022-09-13T13:11:16.636Z,23.10
2022-09-13T13:16:27.185Z,23.10
2022-09-13T13:21:37.861Z,23.20
2022-09-13T13:26:48.284Z,23.10
2022-09-13T13:31:58.665Z,23.20
2022-09-13T13:37:09.171Z,23.20
2022-09-13T13:42:19.505Z,23.10
2022-09-13T13:47:30.135Z,23.20
2022-09-13T13:52:40.772Z,23.20
2022-09-13T13:57:51.182Z,23.20
2022-09-13T14:03:01.927Z,23.20
2022-09-13T14:08:18.884Z,23.20
2022-09-13T14:13:35.460Z,23.20
2022-09-13T14:18:52.767Z,23.20
2022-09-13T14:24:09.490Z,23.20
2022-09-13T14:29:26.529Z,23.20
2022-09-13T14:34:43.508Z,23.20
2022-09-13T14:40:00.853Z,23.20
2022-09-13T14:45:17.423Z,23.30
2022-09-13T14:50:34.362Z,23.30
2022-09-13T14:55:44.988Z,23.20
2022-09-13T15:00:55.702Z,23.20
2022-09-13T15:06:06.105Z,23.20
2022-09-13T15:11:16.521Z,23.30
2022-09-13T15:16:27.192Z,23.30
2022-09-13T15:21:37.632Z,23.30
2022-09-13T15:26:48.018Z,23.30
2022-09-13T15:31:58.816Z,23.30
2022-09-13T15:37:09.459Z,23.30
2022-09-13T15:42:20.034Z,23.30
2022-09-13T15:47:30.406Z,23.30
2022-09-13T15:52:40.814Z,23.30
2022-09-13T15:57:51.198Z,23.30
2022-09-13T16:03:08.744Z,23.30
2022-09-13T16:08:25.782Z,23.40
2022-09-13T16:13:42.738Z,23.30
2022-09-13T16:18:59.433Z,23.30
2022-09-13T16:24:16.430Z,23.30
2022-09-13T16:29:33.625Z,23.30
2022-09-13T16:34:50.501Z,23.30
2022-09-13T16:40:07.408Z,23.30
2022-09-13T16:45:24.506Z,23.30
2022-09-13T16:50:35.213Z,23.30
2022-09-13T16:55:45.884Z,23.30
2022-09-13T17:00:56.425Z,23.30
2022-09-13T17:06:06.822Z,23.30
2022-09-13T17:11:17.211Z,23.30
2022-09-13T17:16:27.931Z,23.30
2022-09-13T17:21:38.837Z,23.30
2022-09-13T17:26:49.192Z,23.30
2022-09-13T17:31:59.472Z,23.30
2022-09-13T17:37:09.737Z,23.30
2022-09-13T17:42:23.139Z,23.30
2022-09-13T17:47:40.713Z,23.30
2022-09-13T17:52:57.439Z,23.30
2022-09-13T17:58:14.352Z,23.30
2022-09-13T18:03:31.237Z,23.30
2022-09-13T18:08:48.389Z,23.30
2022-09-13T18:14:05.384Z,23.30
2022-09-13T18:19:39.263Z,23.20
2022-09-13T18:24:59.572Z,23.20
2022-09-13T18:30:16.580Z,23.30
2022-09-13T18:35:27.246Z,23.30
2022-09-13T18:40:37.968Z,23.30
2022-09-13T18:45:48.355Z,23.20
2022-09-13T18:50:58.928Z,23.20
2022-09-13T18:56:09.640Z,23.20
2022-09-13T19:01:20.133Z,23.20
2022-09-13T19:06:30.974Z,23.20
2022-09-13T19:11:46.955Z,23.20
2022-09-13T19:16:58.456Z,23.20
2022-09-13T19:22:09.052Z,23.20
2022-09-13T19:24:46.910Z,23.20
2022-09-13T19:27:13.386Z,23.20
2022-09-13T19:32:24.116Z,23.20
2022-09-13T19:37:34.819Z,23.20
2022-09-13T19:42:45.075Z,23.20
2022-09-13T19:48:37.195Z,23.20
2022-09-13T19:53:46.600Z,23.20
2022-09-13T19:58:56.646Z,23.20
2022-09-13T20:04:07.035Z,23.20
2022-09-13T20:09:17.372Z,23.20
2022-09-13T20:14:34.604Z,23.20
2022-09-13T20:19:51.263Z,23.10
2022-09-13T20:25:08.141Z,23.10
2022-09-13T20:30:25.406Z,23.10
2022-09-13T20:35:42.366Z,23.10
2022-09-13T20:40:59.354Z,23.10
2022-09-13T20:46:16.470Z,23.10
2022-09-13T20:51:34.780Z,23.10
2022-09-13T20:56:52.485Z,23.10
2022-09-13T21:02:09.307Z,23.10
2022-09-13T21:07:26.229Z,23.10
2022-09-13T21:12:36.644Z,23.10
2022-09-13T21:17:47.166Z,23.10
2022-09-13T21:22:57.721Z,23.10
2022-09-13T21:25:24.193Z,23.10
2022-09-13T21:27:50.684Z,23.10
2022-09-13T21:33:01.206Z,23.10
2022-09-13T21:38:11.982Z,23.10
2022-09-13T21:43:22.449Z,23.10
2022-09-13T21:48:33.035Z,23.10
2022-09-13T21:53:43.365Z,23.10
2022-09-13T21:58:53.715Z,23.10
2022-09-13T22:04:04.326Z,23.10
2022-09-13T22:09:14.852Z,23.00
2022-09-13T22:14:25.530Z,23.10
2022-09-13T22:19:36.194Z,23.10
2022-09-13T22:24:53.089Z,23.00
2022-09-13T22:30:10.075Z,23.00
2022-09-13T22:35:27.466Z,23.00
2022-09-13T22:40:44.075Z,23.00
2022-09-13T22:46:01.103Z,23.00
2022-09-13T22:51:18.170Z,23.00
2022-09-13T22:56:35.033Z,23.00
2022-09-13T23:01:52.054Z,23.00
2022-09-13T23:07:09.090Z,23.00
2022-09-13T23:12:26.231Z,23.00
2022-09-13T23:17:43.259Z,23.00
2022-09-13T23:23:00.011Z,23.00
2022-09-13T23:25:26.490Z,23.00
2022-09-13T23:27:52.957Z,23.00
2022-09-13T23:33:09.902Z,23.00
2022-09-13T23:38:27.115Z,23.00
2022-09-13T23:43:44.079Z,23.00
2022-09-13T23:49:00.989Z,23.00
2022-09-13T23:54:11.350Z,22.90
2022-09-13T23:59:21.964Z,23.00
